sensor_id;sensor_type;location;lat;lon;timestamp;pressure;altitude;pressure_sealevel;temperature;humidity
22550;BME280;11441;57.164;-2.120;2023-03-03T00:01:14;102753.66;;;5.47;100.00
22550;BME280;11441;57.164;-2.120;2023-03-03T00:03:41;102746.00;;;5.39;100.00
22550;BME280;11441;57.164;-2.120;2023-03-03T00:06:10;102753.38;;;5.34;100.00
22550;BME280;11441;57.164;-2.120;2023-03-03T00:08:39;102748.75;;;5.44;100.00
22550;BME280;11441;57.164;-2.120;2023-03-03T00:11:06;102751.47;;;5.39;100.00
22550;BME280;11441;57.164;-2.120;2023-03-03T00:13:51;102748.72;;;5.34;100.00
22550;BME280;11441;57.164;-2.120;2023-03-03T00:16:30;102747.63;;;5.30;100.00
22550;BME280;11441;57.164;-2.120;2023-03-03T00:18:57;102755.00;;;5.29;100.00
22550;BME280;11441;57.164;-2.120;2023-03-03T00:21:44;102751.16;;;5.31;100.00
22550;BME280;11441;57.164;-2.120;2023-03-03T00:26:46;102741.31;;;5.24;100.00
22550;BME280;11441;57.164;-2.120;2023-03-03T00:29:34;102753.63;;;5.27;100.00
22550;BME280;11441;57.164;-2.120;2023-03-03T00:32:23;102741.81;;;5.11;100.00
22550;BME280;11441;57.164;-2.120;2023-03-03T00:34:51;102755.78;;;5.20;100.00
22550;BME280;11441;57.164;-2.120;2023-03-03T00:37:33;102748.41;;;5.25;100.00
22550;BME280;11441;57.164;-2.120;2023-03-03T00:40:14;102758.78;;;5.18;100.00
22550;BME280;11441;57.164;-2.120;2023-03-03T00:42:48;102753.22;;;4.93;100.00
22550;BME280;11441;57.164;-2.120;2023-03-03T00:45:27;102754.09;;;4.98;100.00
22550;BME280;11441;57.164;-2.120;2023-03-03T00:47:55;102742.84;;;5.00;100.00
22550;BME280;11441;57.164;-2.120;2023-03-03T00:50:33;102750.25;;;5.04;100.00
22550;BME280;11441;57.164;-2.120;2023-03-03T00:53:06;102748.63;;;5.03;100.00
22550;BME280;11441;57.164;-2.120;2023-03-03T00:55:34;102748.63;;;5.03;100.00
22550;BME280;11441;57.164;-2.120;2023-03-03T00:58:01;102752.38;;;4.87;100.00
22550;BME280;11441;57.164;-2.120;2023-03-03T01:00:34;102728.06;;;4.85;100.00
22550;BME280;11441;57.164;-2.120;2023-03-03T01:03:06;102751.59;;;4.91;100.00
22550;BME280;11441;57.164;-2.120;2023-03-03T01:05:34;102748.56;;;4.88;100.00
22550;BME280;11441;57.164;-2.120;2023-03-03T01:08:01;102748.00;;;4.86;100.00
22550;BME280;11441;57.164;-2.120;2023-03-03T01:10:31;102748.53;;;4.83;100.00
22550;BME280;11441;57.164;-2.120;2023-03-03T01:13:20;102757.63;;;4.99;100.00
22550;BME280;11441;57.164;-2.120;2023-03-03T01:15:48;102752.97;;;4.99;100.00
22550;BME280;11441;57.164;-2.120;2023-03-03T01:18:16;102747.41;;;4.79;100.00
22550;BME280;11441;57.164;-2.120;2023-03-03T01:20:43;102750.69;;;4.76;100.00
22550;BME280;11441;57.164;-2.120;2023-03-03T01:23:10;102751.50;;;4.76;100.00
22550;BME280;11441;57.164;-2.120;2023-03-03T01:25:37;102740.00;;;4.69;100.00
22550;BME280;11441;57.164;-2.120;2023-03-03T01:28:04;102746.03;;;4.71;100.00
22550;BME280;11441;57.164;-2.120;2023-03-03T01:30:31;102751.19;;;4.67;100.00
22550;BME280;11441;57.164;-2.120;2023-03-03T01:32:58;102748.47;;;4.67;100.00
22550;BME280;11441;57.164;-2.120;2023-03-03T01:35:25;102752.78;;;4.58;100.00
22550;BME280;11441;57.164;-2.120;2023-03-03T01:37:52;102752.28;;;4.71;100.00
22550;BME280;11441;57.164;-2.120;2023-03-03T01:40:23;102751.41;;;4.56;100.00
22550;BME280;11441;57.164;-2.120;2023-03-03T01:43:14;102755.56;;;4.68;100.00
22550;BME280;11441;57.164;-2.120;2023-03-03T01:48:18;102751.34;;;4.45;100.00
22550;BME280;11441;57.164;-2.120;2023-03-03T01:51:00;102752.00;;;4.68;100.00
22550;BME280;11441;57.164;-2.120;2023-03-03T01:53:40;102737.03;;;4.70;100.00
22550;BME280;11441;57.164;-2.120;2023-03-03T01:56:09;102746.84;;;4.71;100.00
22550;BME280;11441;57.164;-2.120;2023-03-03T01:58:40;102745.44;;;4.64;100.00
22550;BME280;11441;57.164;-2.120;2023-03-03T02:01:28;102746.22;;;4.59;100.00
22550;BME280;11441;57.164;-2.120;2023-03-03T02:03:57;102751.16;;;4.62;100.00
22550;BME280;11441;57.164;-2.120;2023-03-03T02:06:32;102745.38;;;4.53;100.00
22550;BME280;11441;57.164;-2.120;2023-03-03T02:09:09;102741.88;;;4.58;100.00
22550;BME280;11441;57.164;-2.120;2023-03-03T02:11:39;102744.03;;;4.56;100.00
22550;BME280;11441;57.164;-2.120;2023-03-03T02:14:10;102742.88;;;4.47;100.00
22550;BME280;11441;57.164;-2.120;2023-03-03T02:16:41;102733.38;;;4.49;100.00
22550;BME280;11441;57.164;-2.120;2023-03-03T02:19:39;102738.34;;;4.68;100.00
22550;BME280;11441;57.164;-2.120;2023-03-03T02:22:10;102737.53;;;4.62;100.00
22550;BME280;11441;57.164;-2.120;2023-03-03T02:24:45;102722.91;;;4.36;100.00
22550;BME280;11441;57.164;-2.120;2023-03-03T02:27:15;102736.38;;;4.53;100.00
22550;BME280;11441;57.164;-2.120;2023-03-03T02:29:42;102731.66;;;4.38;100.00
22550;BME280;11441;57.164;-2.120;2023-03-03T02:32:10;102735.22;;;4.44;100.00
22550;BME280;11441;57.164;-2.120;2023-03-03T02:34:48;102741.22;;;4.41;100.00
22550;BME280;11441;57.164;-2.120;2023-03-03T02:37:15;102734.63;;;4.37;100.00
22550;BME280;11441;57.164;-2.120;2023-03-03T02:39:42;102731.34;;;4.34;100.00
22550;BME280;11441;57.164;-2.120;2023-03-03T02:42:21;102741.00;;;4.52;100.00
22550;BME280;11441;57.164;-2.120;2023-03-03T02:44:53;102729.22;;;4.42;100.00
22550;BME280;11441;57.164;-2.120;2023-03-03T02:47:38;102726.22;;;4.43;100.00
22550;BME280;11441;57.164;-2.120;2023-03-03T02:50:05;102723.44;;;4.33;100.00
22550;BME280;11441;57.164;-2.120;2023-03-03T02:52:51;102723.25;;;4.50;100.00
22550;BME280;11441;57.164;-2.120;2023-03-03T02:55:18;102719.91;;;4.38;100.00
22550;BME280;11441;57.164;-2.120;2023-03-03T02:57:45;102715.97;;;4.18;100.00
22550;BME280;11441;57.164;-2.120;2023-03-03T03:00:12;102719.78;;;4.17;100.00
22550;BME280;11441;57.164;-2.120;2023-03-03T03:02:39;102718.97;;;4.17;100.00
22550;BME280;11441;57.164;-2.120;2023-03-03T03:05:07;102716.34;;;4.32;100.00
22550;BME280;11441;57.164;-2.120;2023-03-03T03:07:36;102717.66;;;4.24;100.00
22550;BME280;11441;57.164;-2.120;2023-03-03T03:10:04;102721.03;;;4.42;100.00
22550;BME280;11441;57.164;-2.120;2023-03-03T03:12:34;102718.25;;;4.37;100.00
22550;BME280;11441;57.164;-2.120;2023-03-03T03:15:01;102712.56;;;4.43;100.00
22550;BME280;11441;57.164;-2.120;2023-03-03T03:17:29;102716.13;;;4.44;100.00
22550;BME280;11441;57.164;-2.120;2023-03-03T03:19:59;102715.84;;;4.45;100.00
22550;BME280;11441;57.164;-2.120;2023-03-03T03:22:26;102717.69;;;4.29;100.00
22550;BME280;11441;57.164;-2.120;2023-03-03T03:24:53;102714.72;;;4.36;100.00
22550;BME280;11441;57.164;-2.120;2023-03-03T03:27:20;102712.44;;;4.23;100.00
22550;BME280;11441;57.164;-2.120;2023-03-03T03:29:50;102723.16;;;4.34;100.00
22550;BME280;11441;57.164;-2.120;2023-03-03T03:32:17;102719.91;;;4.38;100.00
22550;BME280;11441;57.164;-2.120;2023-03-03T03:34:44;102716.66;;;4.46;100.00
22550;BME280;11441;57.164;-2.120;2023-03-03T03:37:11;102728.97;;;4.48;100.00
22550;BME280;11441;57.164;-2.120;2023-03-03T03:39:38;102723.75;;;4.42;100.00
22550;BME280;11441;57.164;-2.120;2023-03-03T03:42:05;102727.06;;;4.49;100.00
22550;BME280;11441;57.164;-2.120;2023-03-03T03:44:32;102716.66;;;4.46;100.00
22550;BME280;11441;57.164;-2.120;2023-03-03T03:47:00;102720.22;;;4.41;100.00
22550;BME280;11441;57.164;-2.120;2023-03-03T03:49:28;102723.75;;;4.42;100.00
22550;BME280;11441;57.164;-2.120;2023-03-03T03:51:56;102725.41;;;4.43;100.00
22550;BME280;11441;57.164;-2.120;2023-03-03T03:54:27;102727.06;;;4.49;100.00
22550;BME280;11441;57.164;-2.120;2023-03-03T03:56:54;102723.16;;;4.34;100.00
22550;BME280;11441;57.164;-2.120;2023-03-03T03:59:21;102724.59;;;4.47;100.00
22550;BME280;11441;57.164;-2.120;2023-03-03T04:01:49;102721.31;;;4.45;100.00
22550;BME280;11441;57.164;-2.120;2023-03-03T04:04:16;102727.13;;;4.59;100.00
22550;BME280;11441;57.164;-2.120;2023-03-03T04:06:43;102721.09;;;4.52;100.00
22550;BME280;11441;57.164;-2.120;2023-03-03T04:09:28;102720.84;;;4.59;100.00
22550;BME280;11441;57.164;-2.120;2023-03-03T04:11:55;102721.59;;;4.49;100.00
22550;BME280;11441;57.164;-2.120;2023-03-03T04:14:22;102724.84;;;4.46;100.00
22550;BME280;11441;57.164;-2.120;2023-03-03T04:16:49;102730.09;;;4.52;100.00
22550;BME280;11441;57.164;-2.120;2023-03-03T04:19:16;102726.84;;;4.56;100.00
22550;BME280;11441;57.164;-2.120;2023-03-03T04:21:43;102718.00;;;4.38;100.00
22550;BME280;11441;57.164;-2.120;2023-03-03T04:24:10;102719.13;;;4.47;100.00
22550;BME280;11441;57.164;-2.120;2023-03-03T04:26:37;102722.44;;;4.49;100.00
22550;BME280;11441;57.164;-2.120;2023-03-03T04:29:23;102724.91;;;4.56;100.00
22550;BME280;11441;57.164;-2.120;2023-03-03T04:31:50;102720.03;;;4.58;100.00
22550;BME280;11441;57.164;-2.120;2023-03-03T04:34:17;102723.28;;;4.55;100.00
22550;BME280;11441;57.164;-2.120;2023-03-03T04:36:44;102719.78;;;4.65;100.00
22550;BME280;11441;57.164;-2.120;2023-03-03T04:39:12;102715.69;;;4.62;100.00
22550;BME280;11441;57.164;-2.120;2023-03-03T04:41:39;102724.94;;;4.61;100.00
22550;BME280;11441;57.164;-2.120;2023-03-03T04:44:05;102721.94;;;4.63;100.00
22550;BME280;11441;57.164;-2.120;2023-03-03T04:46:32;102721.72;;;4.69;100.00
22550;BME280;11441;57.164;-2.120;2023-03-03T04:49:00;102724.41;;;4.64;100.00
22550;BME280;11441;57.164;-2.120;2023-03-03T04:51:27;102726.56;;;4.57;100.00
22550;BME280;11441;57.164;-2.120;2023-03-03T04:53:54;102726.00;;;4.50;100.00
22550;BME280;11441;57.164;-2.120;2023-03-03T04:56:39;102729.34;;;4.62;100.00
22550;BME280;11441;57.164;-2.120;2023-03-03T04:59:07;102725.84;;;4.72;100.00
22550;BME280;11441;57.164;-2.120;2023-03-03T05:01:34;102723.72;;;4.84;100.00
22550;BME280;11441;57.164;-2.120;2023-03-03T05:04:02;102711.28;;;4.61;100.00
22550;BME280;11441;57.164;-2.120;2023-03-03T05:06:29;102727.06;;;4.49;100.00
22550;BME280;11441;57.164;-2.120;2023-03-03T05:08:55;102729.53;;;4.50;100.00
22550;BME280;11441;57.164;-2.120;2023-03-03T05:11:22;102727.72;;;4.71;100.00
22550;BME280;11441;57.164;-2.120;2023-03-03T05:13:49;102729.38;;;4.72;100.00
22550;BME280;11441;57.164;-2.120;2023-03-03T05:16:16;102730.44;;;4.66;100.00
22550;BME280;11441;57.164;-2.120;2023-03-03T05:18:43;102728.50;;;4.62;100.00
22550;BME280;11441;57.164;-2.120;2023-03-03T05:21:11;102725.56;;;4.73;100.00
22550;BME280;11441;57.164;-2.120;2023-03-03T05:23:38;102733.75;;;4.79;100.00
22550;BME280;11441;57.164;-2.120;2023-03-03T05:26:04;102727.19;;;4.69;100.00
22550;BME280;11441;57.164;-2.120;2023-03-03T05:28:32;102732.59;;;4.59;100.00
22550;BME280;11441;57.164;-2.120;2023-03-03T05:30:59;102724.47;;;4.75;100.00
22550;BME280;11441;57.164;-2.120;2023-03-03T05:33:26;102720.34;;;4.67;100.00
22550;BME280;11441;57.164;-2.120;2023-03-03T05:35:56;102719.00;;;4.75;100.00
22550;BME280;11441;57.164;-2.120;2023-03-03T05:38:23;102723.41;;;4.86;100.00
22550;BME280;11441;57.164;-2.120;2023-03-03T05:41:27;102733.25;;;4.87;100.00
22550;BME280;11441;57.164;-2.120;2023-03-03T05:43:54;102738.41;;;4.78;100.00
22550;BME280;11441;57.164;-2.120;2023-03-03T05:46:21;102728.31;;;4.84;100.00
22550;BME280;11441;57.164;-2.120;2023-03-03T05:49:06;102734.34;;;4.81;100.00
22550;BME280;11441;57.164;-2.120;2023-03-03T05:51:33;102728.00;;;4.75;100.00
22550;BME280;11441;57.164;-2.120;2023-03-03T05:54:00;102738.16;;;4.80;100.00
22550;BME280;11441;57.164;-2.120;2023-03-03T05:56:27;102728.06;;;4.85;100.00
22550;BME280;11441;57.164;-2.120;2023-03-03T05:58:53;102718.25;;;4.84;100.00
22550;BME280;11441;57.164;-2.120;2023-03-03T06:01:21;102729.16;;;4.84;100.00
22550;BME280;11441;57.164;-2.120;2023-03-03T06:03:48;102733.81;;;4.89;100.00
22550;BME280;11441;57.164;-2.120;2023-03-03T06:06:14;102733.81;;;4.89;100.00
22550;BME280;11441;57.164;-2.120;2023-03-03T06:08:42;102735.47;;;4.90;100.00
22550;BME280;11441;57.164;-2.120;2023-03-03T06:11:27;102733.31;;;4.97;100.00
22550;BME280;11441;57.164;-2.120;2023-03-03T06:13:53;102734.97;;;5.03;100.00
22550;BME280;11441;57.164;-2.120;2023-03-03T06:16:21;102734.09;;;4.93;100.00
22550;BME280;11441;57.164;-2.120;2023-03-03T06:18:47;102733.88;;;5.04;100.00
22550;BME280;11441;57.164;-2.120;2023-03-03T06:21:14;102736.34;;;5.06;100.00
22550;BME280;11441;57.164;-2.120;2023-03-03T06:23:41;102736.84;;;4.98;100.00
22550;BME280;11441;57.164;-2.120;2023-03-03T06:26:08;102728.13;;;5.01;100.00
22550;BME280;11441;57.164;-2.120;2023-03-03T06:28:35;102733.00;;;4.88;100.00
22550;BME280;11441;57.164;-2.120;2023-03-03T06:31:01;102738.75;;;4.92;100.00
22550;BME280;11441;57.164;-2.120;2023-03-03T06:33:28;102733.31;;;4.97;100.00
22550;BME280;11441;57.164;-2.120;2023-03-03T06:35:55;102737.97;;;5.02;100.00
22550;BME280;11441;57.164;-2.120;2023-03-03T06:38:22;102725.84;;;4.82;100.00
22550;BME280;11441;57.164;-2.120;2023-03-03T06:40:49;102737.44;;;5.10;100.00
22550;BME280;11441;57.164;-2.120;2023-03-03T06:43:15;102742.03;;;4.99;100.00
22550;BME280;11441;57.164;-2.120;2023-03-03T06:45:44;102734.41;;;5.01;100.00
22550;BME280;11441;57.164;-2.120;2023-03-03T06:48:11;102740.94;;;4.95;100.00
22550;BME280;11441;57.164;-2.120;2023-03-03T06:50:38;102730.56;;;4.92;100.00
22550;BME280;11441;57.164;-2.120;2023-03-03T06:53:13;102743.69;;;5.00;100.00
22550;BME280;11441;57.164;-2.120;2023-03-03T06:55:41;102744.75;;;4.94;100.00
22550;BME280;11441;57.164;-2.120;2023-03-03T06:58:18;102751.06;;;4.95;100.00
22550;BME280;11441;57.164;-2.120;2023-03-03T07:00:59;102745.88;;;4.98;100.00
22550;BME280;11441;57.164;-2.120;2023-03-03T07:03:33;102760.03;;;4.85;100.00
22550;BME280;11441;57.164;-2.120;2023-03-03T07:06:01;102757.81;;;4.82;100.00
22550;BME280;11441;57.164;-2.120;2023-03-03T07:08:32;102764.94;;;4.88;100.00
22550;BME280;11441;57.164;-2.120;2023-03-03T07:11:04;102771.00;;;4.95;100.00
22550;BME280;11441;57.164;-2.120;2023-03-03T07:13:53;102763.91;;;5.04;100.00
22550;BME280;11441;57.164;-2.120;2023-03-03T07:16:39;102765.50;;;4.90;100.00
22550;BME280;11441;57.164;-2.120;2023-03-03T07:19:16;102760.66;;;5.07;100.00
22550;BME280;11441;57.164;-2.120;2023-03-03T07:21:44;102761.97;;;4.95;100.00
22550;BME280;11441;57.164;-2.120;2023-03-03T07:26:41;102778.06;;;4.96;100.00
22550;BME280;11441;57.164;-2.120;2023-03-03T07:29:24;102766.38;;;5.06;100.00
22550;BME280;11441;57.164;-2.120;2023-03-03T07:31:53;102768.91;;;5.18;100.00
22550;BME280;11441;57.164;-2.120;2023-03-03T07:37:16;102769.19;;;5.21;100.00
22550;BME280;11441;57.164;-2.120;2023-03-03T07:39:46;102771.88;;;5.11;100.00
22550;BME280;11441;57.164;-2.120;2023-03-03T07:42:36;102781.69;;;5.07;100.00
22550;BME280;11441;57.164;-2.120;2023-03-03T07:45:30;102773.81;;;5.16;100.00
22550;BME280;11441;57.164;-2.120;2023-03-03T07:48:25;102773.50;;;5.17;100.00
22550;BME280;11441;57.164;-2.120;2023-03-03T07:51:04;102777.06;;;5.13;100.00
22550;BME280;11441;57.164;-2.120;2023-03-03T07:53:34;102774.56;;;5.01;100.00
22550;BME280;11441;57.164;-2.120;2023-03-03T07:56:20;102782.75;;;5.01;100.00
22550;BME280;11441;57.164;-2.120;2023-03-03T07:58:49;102784.41;;;5.02;100.00
22550;BME280;11441;57.164;-2.120;2023-03-03T08:01:38;102785.75;;;4.99;100.00
22550;BME280;11441;57.164;-2.120;2023-03-03T08:04:19;102764.19;;;5.03;100.00
22550;BME280;11441;57.164;-2.120;2023-03-03T08:06:52;102777.06;;;5.13;100.00
22550;BME280;11441;57.164;-2.120;2023-03-03T08:14:26;102784.47;;;5.27;100.00
22550;BME280;11441;57.164;-2.120;2023-03-03T08:16:55;102791.09;;;5.37;100.00
22550;BME280;11441;57.164;-2.120;2023-03-03T08:19:24;102784.78;;;5.26;100.00
22550;BME280;11441;57.164;-2.120;2023-03-03T08:21:51;102786.72;;;5.41;100.00
22550;BME280;11441;57.164;-2.120;2023-03-03T08:24:22;102784.50;;;5.33;100.00
22550;BME280;11441;57.164;-2.120;2023-03-03T08:26:49;102790.25;;;5.36;100.00
22550;BME280;11441;57.164;-2.120;2023-03-03T08:29:16;102800.03;;;5.22;100.00
22550;BME280;11441;57.164;-2.120;2023-03-03T08:31:43;102789.94;;;5.22;100.00
22550;BME280;11441;57.164;-2.120;2023-03-03T08:34:09;102786.94;;;5.29;100.00
22550;BME280;11441;57.164;-2.120;2023-03-03T08:36:36;102795.16;;;5.29;100.00
22550;BME280;11441;57.164;-2.120;2023-03-03T08:39:03;102788.09;;;5.38;100.00
22550;BME280;11441;57.164;-2.120;2023-03-03T08:41:30;102797.91;;;5.39;100.00
22550;BME280;11441;57.164;-2.120;2023-03-03T08:43:57;102796.28;;;5.38;100.00
22550;BME280;11441;57.164;-2.120;2023-03-03T08:46:24;102803.34;;;5.29;100.00
22550;BME280;11441;57.164;-2.120;2023-03-03T08:48:51;102800.63;;;5.34;100.00
22550;BME280;11441;57.164;-2.120;2023-03-03T08:51:20;102802.88;;;5.47;100.00
22550;BME280;11441;57.164;-2.120;2023-03-03T08:53:46;102806.41;;;5.43;100.00
22550;BME280;11441;57.164;-2.120;2023-03-03T08:56:32;102805.88;;;5.51;100.00
22550;BME280;11441;57.164;-2.120;2023-03-03T08:58:59;102797.63;;;5.36;100.00
22550;BME280;11441;57.164;-2.120;2023-03-03T09:01:31;102805.56;;;5.37;100.00
22550;BME280;11441;57.164;-2.120;2023-03-03T09:03:58;102800.94;;;5.48;100.00
22550;BME280;11441;57.164;-2.120;2023-03-03T09:06:25;102807.50;;;5.42;100.00
22550;BME280;11441;57.164;-2.120;2023-03-03T09:08:52;102806.94;;;5.45;100.00
22550;BME280;11441;57.164;-2.120;2023-03-03T09:11:25;102814.38;;;5.55;100.00
22550;BME280;11441;57.164;-2.120;2023-03-03T09:14:16;102813.81;;;5.53;100.00
22550;BME280;11441;57.164;-2.120;2023-03-03T09:16:49;102798.75;;;5.50;100.00
22550;BME280;11441;57.164;-2.120;2023-03-03T09:19:29;102811.34;;;5.51;100.00
22550;BME280;11441;57.164;-2.120;2023-03-03T09:22:10;102812.19;;;5.57;100.00
22550;BME280;11441;57.164;-2.120;2023-03-03T09:24:45;102821.75;;;5.49;100.00
22550;BME280;11441;57.164;-2.120;2023-03-03T09:27:18;102822.84;;;5.58;100.00
22550;BME280;11441;57.164;-2.120;2023-03-03T09:29:48;102822.31;;;5.61;100.00
22550;BME280;11441;57.164;-2.120;2023-03-03T09:32:33;102837.00;;;5.45;100.00
22550;BME280;11441;57.164;-2.120;2023-03-03T09:35:36;102833.25;;;5.66;100.00
22550;BME280;11441;57.164;-2.120;2023-03-03T09:38:34;102835.13;;;5.51;100.00
22550;BME280;11441;57.164;-2.120;2023-03-03T09:52:15;102829.41;;;5.52;100.00
22550;BME280;11441;57.164;-2.120;2023-03-03T10:04:20;102830.78;;;5.60;100.00
22550;BME280;11441;57.164;-2.120;2023-03-03T10:15:36;102845.88;;;5.88;100.00
22550;BME280;11441;57.164;-2.120;2023-03-03T10:23:40;102830.03;;;5.95;100.00
22550;BME280;11441;57.164;-2.120;2023-03-03T10:32:03;102830.34;;;6.04;100.00
22550;BME280;11441;57.164;-2.120;2023-03-03T10:37:30;102830.28;;;5.89;100.00
22550;BME280;11441;57.164;-2.120;2023-03-03T10:57:03;102832.81;;;6.00;100.00
22550;BME280;11441;57.164;-2.120;2023-03-03T10:59:53;102822.38;;;5.92;100.00
22550;BME280;11441;57.164;-2.120;2023-03-03T11:02:36;102826.50;;;6.00;100.00
22550;BME280;11441;57.164;-2.120;2023-03-03T11:05:28;102836.09;;;6.13;100.00
22550;BME280;11441;57.164;-2.120;2023-03-03T11:08:18;102827.06;;;6.17;100.00
22550;BME280;11441;57.164;-2.120;2023-03-03T11:11:12;102832.53;;;6.12;100.00
22550;BME280;11441;57.164;-2.120;2023-03-03T11:22:24;102823.22;;;6.39;100.00
22550;BME280;11441;57.164;-2.120;2023-03-03T11:24:37;102827.34;;;6.21;100.00
22550;BME280;11441;57.164;-2.120;2023-03-03T11:27:42;102817.22;;;6.42;100.00
22550;BME280;11441;57.164;-2.120;2023-03-03T11:33:14;102802.41;;;6.64;100.00
22550;BME280;11441;57.164;-2.120;2023-03-03T11:41:03;102810.38;;;6.50;100.00
22550;BME280;11441;57.164;-2.120;2023-03-03T11:46:13;102794.44;;;6.72;100.00
22550;BME280;11441;57.164;-2.120;2023-03-03T11:54:33;102799.03;;;6.92;100.00
22550;BME280;11441;57.164;-2.120;2023-03-03T12:00:20;102793.81;;;6.96;100.00
22550;BME280;11441;57.164;-2.120;2023-03-03T12:08:26;102801.28;;;6.65;100.00
22550;BME280;11441;57.164;-2.120;2023-03-03T12:11:21;102799.59;;;6.84;100.00
22550;BME280;11441;57.164;-2.120;2023-03-03T12:17:05;102798.25;;;6.82;100.00
22550;BME280;11441;57.164;-2.120;2023-03-03T12:20:00;102796.25;;;7.03;100.00
22550;BME280;11441;57.164;-2.120;2023-03-03T12:22:47;102787.00;;;6.88;100.00
22550;BME280;11441;57.164;-2.120;2023-03-03T12:28:38;102783.19;;;6.79;100.00
22550;BME280;11441;57.164;-2.120;2023-03-03T12:34:04;102783.06;;;7.10;100.00
22550;BME280;11441;57.164;-2.120;2023-03-03T12:41:45;102776.22;;;7.12;100.00
22550;BME280;11441;57.164;-2.120;2023-03-03T12:47:28;102760.84;;;7.22;100.00
22550;BME280;11441;57.164;-2.120;2023-03-03T12:53:03;102765.56;;;7.11;100.00
22550;BME280;11441;57.164;-2.120;2023-03-03T12:56:03;102763.63;;;7.06;100.00
22550;BME280;11441;57.164;-2.120;2023-03-03T12:58:40;102763.09;;;7.04;100.00
22550;BME280;11441;57.164;-2.120;2023-03-03T13:14:43;102753.50;;;7.02;100.00
22550;BME280;11441;57.164;-2.120;2023-03-03T13:20:02;102759.91;;;6.82;100.00
22550;BME280;11441;57.164;-2.120;2023-03-03T13:27:55;102749.75;;;6.87;100.00
22550;BME280;11441;57.164;-2.120;2023-03-03T13:30:29;102742.59;;;6.91;100.00
22550;BME280;11441;57.164;-2.120;2023-03-03T13:35:49;102737.75;;;7.28;100.00
22550;BME280;11441;57.164;-2.120;2023-03-03T13:38:23;102736.34;;;7.41;100.00
22550;BME280;11441;57.164;-2.120;2023-03-03T13:41:05;102733.22;;;7.08;100.00
22550;BME280;11441;57.164;-2.120;2023-03-03T13:43:40;102738.28;;;6.75;100.00
22550;BME280;11441;57.164;-2.120;2023-03-03T13:51:56;102722.00;;;7.04;100.00
22550;BME280;11441;57.164;-2.120;2023-03-03T13:57:32;102720.31;;;7.13;100.00
22550;BME280;11441;57.164;-2.120;2023-03-03T14:02:53;102713.84;;;6.94;100.00
22550;BME280;11441;57.164;-2.120;2023-03-03T14:05:52;102719.09;;;6.80;100.00
22550;BME280;11441;57.164;-2.120;2023-03-03T14:11:28;102724.03;;;6.83;100.00
22550;BME280;11441;57.164;-2.120;2023-03-03T14:14:28;102714.16;;;6.77;100.00
22550;BME280;11441;57.164;-2.120;2023-03-03T14:17:11;102713.63;;;6.80;100.00
22550;BME280;11441;57.164;-2.120;2023-03-03T14:20:14;102699.09;;;6.85;100.00
22550;BME280;11441;57.164;-2.120;2023-03-03T14:22:56;102714.44;;;6.80;100.00
22550;BME280;11441;57.164;-2.120;2023-03-03T14:25:25;102696.13;;;6.71;100.00
22550;BME280;11441;57.164;-2.120;2023-03-03T14:27:54;102701.63;;;6.71;100.00
22550;BME280;11441;57.164;-2.120;2023-03-03T14:30:26;102698.25;;;6.84;100.00
22550;BME280;11441;57.164;-2.120;2023-03-03T14:35:39;102702.47;;;6.61;100.00
22550;BME280;11441;57.164;-2.120;2023-03-03T14:40:36;102693.09;;;6.77;100.00
22550;BME280;11441;57.164;-2.120;2023-03-03T14:43:19;102697.75;;;6.77;100.00
22550;BME280;11441;57.164;-2.120;2023-03-03T14:45:47;102698.91;;;6.60;100.00
22550;BME280;11441;57.164;-2.120;2023-03-03T14:48:18;102698.91;;;6.66;100.00
22550;BME280;11441;57.164;-2.120;2023-03-03T14:50:51;102698.06;;;6.60;100.00
22550;BME280;11441;57.164;-2.120;2023-03-03T14:55:51;102699.97;;;6.70;100.00
22550;BME280;11441;57.164;-2.120;2023-03-03T14:58:37;102708.72;;;6.67;100.00
22550;BME280;11441;57.164;-2.120;2023-03-03T15:06:49;102684.66;;;6.64;100.00
22550;BME280;11441;57.164;-2.120;2023-03-03T15:09:38;102688.47;;;6.68;100.00
22550;BME280;11441;57.164;-2.120;2023-03-03T15:17:44;102685.50;;;6.59;100.00
22550;BME280;11441;57.164;-2.120;2023-03-03T15:20:40;102693.47;;;6.50;100.00
22550;BME280;11441;57.164;-2.120;2023-03-03T15:28:57;102679.78;;;6.45;100.00
22550;BME280;11441;57.164;-2.120;2023-03-03T15:31:44;102683.09;;;6.37;100.00
22550;BME280;11441;57.164;-2.120;2023-03-03T15:49:15;102687.50;;;6.22;100.00
22550;BME280;11441;57.164;-2.120;2023-03-03T15:51:51;102675.75;;;6.32;100.00
22550;BME280;11441;57.164;-2.120;2023-03-03T15:54:35;102679.81;;;6.40;100.00
22550;BME280;11441;57.164;-2.120;2023-03-03T16:02:51;102676.53;;;6.43;100.00
22550;BME280;11441;57.164;-2.120;2023-03-03T16:16:46;102687.94;;;6.66;100.00
22550;BME280;11441;57.164;-2.120;2023-03-03T16:24:26;102670.44;;;6.51;100.00
22550;BME280;11441;57.164;-2.120;2023-03-03T16:27:05;102677.91;;;6.35;100.00
22550;BME280;11441;57.164;-2.120;2023-03-03T16:38:04;102685.28;;;6.40;100.00
22550;BME280;11441;57.164;-2.120;2023-03-03T16:40:57;102676.28;;;6.34;100.00
22550;BME280;11441;57.164;-2.120;2023-03-03T16:49:08;102677.66;;;6.27;100.00
22550;BME280;11441;57.164;-2.120;2023-03-03T16:51:48;102677.66;;;6.16;100.00
22550;BME280;11441;57.164;-2.120;2023-03-03T16:57:00;102681.50;;;6.26;100.00
22550;BME280;11441;57.164;-2.120;2023-03-03T17:02:25;102672.50;;;6.10;100.00
22550;BME280;11441;57.164;-2.120;2023-03-03T17:07:52;102678.50;;;6.17;100.00
22550;BME280;11441;57.164;-2.120;2023-03-03T17:10:29;102686.44;;;6.18;100.00
22550;BME280;11441;57.164;-2.120;2023-03-03T17:18:36;102693.25;;;6.26;100.00
22550;BME280;11441;57.164;-2.120;2023-03-03T17:21:17;102692.19;;;6.12;100.00
22550;BME280;11441;57.164;-2.120;2023-03-03T17:23:55;102695.44;;;5.93;100.00
22550;BME280;11441;57.164;-2.120;2023-03-03T17:29:38;102694.09;;;6.16;100.00
22550;BME280;11441;57.164;-2.120;2023-03-03T17:40:52;102690.81;;;6.04;100.00
22550;BME280;11441;57.164;-2.120;2023-03-03T17:46:00;102691.09;;;5.97;100.00